68.7°F
Current conditions from King Hill
Updated every 5 minutes
 
  Sunday August 31, 2014

Station Historical Data
Daily Summary for November 23, 2011 Units:  Both    English   Metric
« Previous Day
Next Day »
Daily Weekly Monthly Yearly Custom
  High: Low: Average:
Temperature: 33.8 °F /  1 °C 26.0 °F /  -3.3 °C 30.6 °F /  -0.8 °C
Dew Point: 32.0 °F /  0 °C 23.6 °F /  -4.7 °C 28.4 °F /  -2 °C
Humidity: 93% 79% 91%
Wind Speed: 4.0mph /  6.4km/h - 1.3mph /  2.1km/h
Wind Gust: 11.0mph /  17.7km/h - -
Wind- - SSW
Pressure: 30.14 in /  1020.5 hPa 29.79 in /  1008.7 hPa -
Precipitation: 0.00 in /  0 mm    
Historical Graphs
 
 
Tabular Data for November 23, 2011
Time Temperature Dew Point Pressure Wind Wind Speed Wind Gust Humidity Daily Rainfall
00:04 29.3 °F /  -1.5 °C 23.6 °F /  -4.7 °C 30.14in /  1020.5hPa SSW 4.0mph /  6.4km/h 9.0mph /  14.5km/h 79% 0.00in /  0mm
00:09 29.0 °F /  -1.7 °C 23.9 °F /  -4.5 °C 30.14in /  1020.5hPa SSW 3.0mph /  4.8km/h 9.0mph /  14.5km/h 81% 0.00in /  0mm
00:14 28.9 °F /  -1.7 °C 24.1 °F /  -4.4 °C 30.14in /  1020.5hPa Calm   7.0mph /  11.3km/h 82% 0.00in /  0mm
00:19 28.8 °F /  -1.8 °C 24.3 °F /  -4.3 °C 30.13in /  1020.2hPa Calm   5.0mph /  8km/h 83% 0.00in /  0mm
00:24 28.8 °F /  -1.8 °C 24.3 °F /  -4.3 °C 30.13in /  1020.2hPa Calm   4.0mph /  6.4km/h 83% 0.00in /  0mm
00:29 28.9 °F /  -1.7 °C 24.7 °F /  -4.1 °C 30.13in /  1020.2hPa Calm     84% 0.00in /  0mm
00:34 29.0 °F /  -1.7 °C 24.8 °F /  -4 °C 30.12in /  1019.9hPa Calm     84% 0.00in /  0mm
00:39 29.2 °F /  -1.6 °C 25.3 °F /  -3.7 °C 30.11in /  1019.5hPa Calm     85% 0.00in /  0mm
00:44 29.4 °F /  -1.4 °C 25.5 °F /  -3.6 °C 30.11in /  1019.5hPa Calm     85% 0.00in /  0mm
00:49 29.8 °F /  -1.2 °C 26.1 °F /  -3.3 °C 30.11in /  1019.5hPa Calm   1.0mph /  1.6km/h 86% 0.00in /  0mm
00:54 30.0 °F /  -1.1 °C 26.3 °F /  -3.2 °C 30.11in /  1019.5hPa Calm   3.0mph /  4.8km/h 86% 0.00in /  0mm
00:59 30.1 °F /  -1.1 °C 26.4 °F /  -3.1 °C 30.11in /  1019.5hPa Calm   4.0mph /  6.4km/h 86% 0.00in /  0mm
01:04 30.2 °F /  -1 °C 26.8 °F /  -2.9 °C 30.11in /  1019.5hPa Calm   4.0mph /  6.4km/h 87% 0.00in /  0mm
01:09 30.0 °F /  -1.1 °C 26.3 °F /  -3.2 °C 30.11in /  1019.5hPa Calm   2.0mph /  3.2km/h 86% 0.00in /  0mm
01:14 29.6 °F /  -1.3 °C 25.9 °F /  -3.4 °C 30.10in /  1019.2hPa SE 1.0mph /  1.6km/h 3.0mph /  4.8km/h 86% 0.00in /  0mm
01:19 29.2 °F /  -1.6 °C 25.5 °F /  -3.6 °C 30.10in /  1019.2hPa ESE 1.0mph /  1.6km/h 3.0mph /  4.8km/h 86% 0.00in /  0mm
01:24 29.0 °F /  -1.7 °C 25.3 °F /  -3.7 °C 30.09in /  1018.8hPa Calm   3.0mph /  4.8km/h 86% 0.00in /  0mm
01:29 28.9 °F /  -1.7 °C 25.2 °F /  -3.8 °C 30.09in /  1018.8hPa Calm   2.0mph /  3.2km/h 86% 0.00in /  0mm
01:39 28.9 °F /  -1.7 °C 25.5 °F /  -3.6 °C 30.08in /  1018.5hPa Calm   1.0mph /  1.6km/h 87% 0.00in /  0mm
01:44 28.9 °F /  -1.7 °C 25.5 °F /  -3.6 °C 30.08in /  1018.5hPa Calm     87% 0.00in /  0mm
01:49 28.9 °F /  -1.7 °C 25.5 °F /  -3.6 °C 30.08in /  1018.5hPa Calm     87% 0.00in /  0mm
01:54 29.1 °F /  -1.6 °C 25.7 °F /  -3.5 °C 30.07in /  1018.2hPa Calm   4.0mph /  6.4km/h 87% 0.00in /  0mm
01:59 29.8 °F /  -1.2 °C 26.7 °F /  -2.9 °C 30.06in /  1017.8hPa Calm   5.0mph /  8km/h 88% 0.00in /  0mm
02:04 30.1 °F /  -1.1 °C 27.0 °F /  -2.8 °C 30.06in /  1017.8hPa Calm   5.0mph /  8km/h 88% 0.00in /  0mm
02:09 30.4 °F /  -0.9 °C 27.3 °F /  -2.6 °C 30.06in /  1017.8hPa Calm   3.0mph /  4.8km/h 88% 0.00in /  0mm
02:14 30.8 °F /  -0.7 °C 27.9 °F /  -2.3 °C 30.06in /  1017.8hPa SE 1.0mph /  1.6km/h 4.0mph /  6.4km/h 89% 0.00in /  0mm
02:19 31.2 °F /  -0.4 °C 28.3 °F /  -2.1 °C 30.05in /  1017.5hPa SSE 1.0mph /  1.6km/h 6.0mph /  9.7km/h 89% 0.00in /  0mm
02:29 31.7 °F /  -0.2 °C 28.8 °F /  -1.8 °C 30.05in /  1017.5hPa SSE 2.0mph /  3.2km/h 8.0mph /  12.9km/h 89% 0.00in /  0mm
02:34 31.9 °F /  -0.1 °C 29.0 °F /  -1.7 °C 30.04in /  1017.2hPa SSE 2.0mph /  3.2km/h 6.0mph /  9.7km/h 89% 0.00in /  0mm
02:39 32.1 °F /  0.1 °C 29.2 °F /  -1.6 °C 30.03in /  1016.8hPa SSE 2.0mph /  3.2km/h 6.0mph /  9.7km/h 89% 0.00in /  0mm
02:44 32.2 °F /  0.1 °C 29.3 °F /  -1.5 °C 30.03in /  1016.8hPa SSE 3.0mph /  4.8km/h 6.0mph /  9.7km/h 89% 0.00in /  0mm
02:49 32.4 °F /  0.2 °C 29.5 °F /  -1.4 °C 30.02in /  1016.5hPa Calm   5.0mph /  8km/h 89% 0.00in /  0mm
02:54 32.5 °F /  0.3 °C 29.6 °F /  -1.3 °C 30.01in /  1016.1hPa South 1.0mph /  1.6km/h 9.0mph /  14.5km/h 89% 0.00in /  0mm
02:59 32.6 °F /  0.3 °C 29.7 °F /  -1.3 °C 30.00in /  1015.8hPa SSE 1.0mph /  1.6km/h 9.0mph /  14.5km/h 89% 0.00in /  0mm
03:04 32.7 °F /  0.4 °C 29.8 °F /  -1.2 °C 29.99in /  1015.5hPa Calm   6.0mph /  9.7km/h 89% 0.00in /  0mm
03:09 32.7 °F /  0.4 °C 29.8 °F /  -1.2 °C 29.99in /  1015.5hPa Calm   7.0mph /  11.3km/h 89% 0.00in /  0mm
03:14 32.8 °F /  0.4 °C 29.9 °F /  -1.2 °C 29.98in /  1015.1hPa South 1.0mph /  1.6km/h 7.0mph /  11.3km/h 89% 0.00in /  0mm
03:19 32.9 °F /  0.5 °C 30.0 °F /  -1.1 °C 29.98in /  1015.1hPa Calm   6.0mph /  9.7km/h 89% 0.00in /  0mm
03:29 33.0 °F /  0.6 °C 30.1 °F /  -1.1 °C 29.96in /  1014.4hPa Calm   6.0mph /  9.7km/h 89% 0.00in /  0mm
03:34 32.9 °F /  0.5 °C 30.0 °F /  -1.1 °C 29.95in /  1014.1hPa Calm   3.0mph /  4.8km/h 89% 0.00in /  0mm
03:39 33.0 °F /  0.6 °C 30.1 °F /  -1.1 °C 29.95in /  1014.1hPa Calm   4.0mph /  6.4km/h 89% 0.00in /  0mm
03:44 32.9 °F /  0.5 °C 30.0 °F /  -1.1 °C 29.95in /  1014.1hPa Calm   4.0mph /  6.4km/h 89% 0.00in /  0mm
03:49 32.9 °F /  0.5 °C 30.0 °F /  -1.1 °C 29.94in /  1013.8hPa Calm   1.0mph /  1.6km/h 89% 0.00in /  0mm
03:54 33.0 °F /  0.6 °C 30.4 °F /  -0.9 °C 29.94in /  1013.8hPa SSE 2.0mph /  3.2km/h 11.0mph /  17.7km/h 90% 0.00in /  0mm
03:59 33.0 °F /  0.6 °C 30.4 °F /  -0.9 °C 29.94in /  1013.8hPa Calm   11.0mph /  17.7km/h 90% 0.00in /  0mm
04:04 32.8 °F /  0.4 °C 29.9 °F /  -1.2 °C 29.94in /  1013.8hPa Calm   2.0mph /  3.2km/h 89% 0.00in /  0mm
04:09 32.7 °F /  0.4 °C 30.1 °F /  -1.1 °C 29.94in /  1013.8hPa Calm   3.0mph /  4.8km/h 90% 0.00in /  0mm
04:14 32.6 °F /  0.3 °C 30.0 °F /  -1.1 °C 29.93in /  1013.4hPa East 1.0mph /  1.6km/h 3.0mph /  4.8km/h 90% 0.00in /  0mm
04:19 32.6 °F /  0.3 °C 30.0 °F /  -1.1 °C 29.93in /  1013.4hPa Calm   3.0mph /  4.8km/h 90% 0.00in /  0mm
04:24 32.4 °F /  0.2 °C 29.8 °F /  -1.2 °C 29.93in /  1013.4hPa Calm   2.0mph /  3.2km/h 90% 0.00in /  0mm
04:29 32.4 °F /  0.2 °C 29.8 °F /  -1.2 °C 29.92in /  1013.1hPa Calm   2.0mph /  3.2km/h 90% 0.00in /  0mm
04:34 32.6 °F /  0.3 °C 30.0 °F /  -1.1 °C 29.92in /  1013.1hPa Calm   2.0mph /  3.2km/h 90% 0.00in /  0mm
04:39 32.6 °F /  0.3 °C 30.0 °F /  -1.1 °C 29.91in /  1012.8hPa Calm     90% 0.00in /  0mm
04:44 32.4 °F /  0.2 °C 29.8 °F /  -1.2 °C 29.91in /  1012.8hPa Calm     90% 0.00in /  0mm
04:49 32.3 °F /  0.2 °C 29.7 °F /  -1.3 °C 29.91in /  1012.8hPa Calm     90% 0.00in /  0mm
04:54 32.0 °F /  0 °C 29.4 °F /  -1.4 °C 29.91in /  1012.8hPa Calm     90% 0.00in /  0mm
04:59 31.9 °F /  -0.1 °C 29.3 °F /  -1.5 °C 29.91in /  1012.8hPa Calm     90% 0.00in /  0mm
05:04 31.9 °F /  -0.1 °C 29.3 °F /  -1.5 °C 29.91in /  1012.8hPa Calm     90% 0.00in /  0mm
05:09 31.9 °F /  -0.1 °C 29.3 °F /  -1.5 °C 29.91in /  1012.8hPa Calm     90% 0.00in /  0mm
05:14 31.8 °F /  -0.1 °C 29.2 °F /  -1.6 °C 29.91in /  1012.8hPa Calm     90% 0.00in /  0mm
05:19 31.7 °F /  -0.2 °C 29.4 °F /  -1.4 °C 29.90in /  1012.4hPa Calm     91% 0.00in /  0mm
05:24 31.7 °F /  -0.2 °C 29.1 °F /  -1.6 °C 29.90in /  1012.4hPa Calm     90% 0.00in /  0mm
05:29 31.8 °F /  -0.1 °C 29.5 °F /  -1.4 °C 29.90in /  1012.4hPa Calm     91% 0.00in /  0mm
05:34 31.8 °F /  -0.1 °C 29.5 °F /  -1.4 °C 29.90in /  1012.4hPa Calm     91% 0.00in /  0mm
05:39 31.7 °F /  -0.2 °C 29.4 °F /  -1.4 °C 29.90in /  1012.4hPa Calm     91% 0.00in /  0mm
05:44 31.7 °F /  -0.2 °C 29.4 °F /  -1.4 °C 29.89in /  1012.1hPa Calm     91% 0.00in /  0mm
05:49 31.6 °F /  -0.2 °C 29.3 °F /  -1.5 °C 29.89in /  1012.1hPa Calm     91% 0.00in /  0mm
05:54 31.7 °F /  -0.2 °C 29.4 °F /  -1.4 °C 29.89in /  1012.1hPa Calm     91% 0.00in /  0mm
05:59 31.6 °F /  -0.2 °C 29.3 °F /  -1.5 °C 29.88in /  1011.7hPa Calm     91% 0.00in /  0mm
06:04 31.6 °F /  -0.2 °C 29.3 °F /  -1.5 °C 29.87in /  1011.4hPa Calm     91% 0.00in /  0mm
06:09 31.7 °F /  -0.2 °C 29.4 °F /  -1.4 °C 29.87in /  1011.4hPa Calm     91% 0.00in /  0mm
06:14 31.6 °F /  -0.2 °C 29.3 °F /  -1.5 °C 29.87in /  1011.4hPa Calm     91% 0.00in /  0mm
06:19 31.6 °F /  -0.2 °C 29.3 °F /  -1.5 °C 29.87in /  1011.4hPa Calm     91% 0.00in /  0mm
06:24 31.6 °F /  -0.2 °C 29.3 °F /  -1.5 °C 29.87in /  1011.4hPa Calm     91% 0.00in /  0mm
06:29 31.6 °F /  -0.2 °C 29.3 °F /  -1.5 °C 29.87in /  1011.4hPa Calm     91% 0.00in /  0mm
06:34 31.7 °F /  -0.2 °C 29.6 °F /  -1.3 °C 29.86in /  1011.1hPa Calm     92% 0.00in /  0mm
06:39 31.7 °F /  -0.2 °C 29.6 °F /  -1.3 °C 29.85in /  1010.7hPa Calm     92% 0.00in /  0mm
06:44 31.7 °F /  -0.2 °C 29.6 °F /  -1.3 °C 29.85in /  1010.7hPa Calm     92% 0.00in /  0mm
06:49 31.7 °F /  -0.2 °C 29.6 °F /  -1.3 °C 29.85in /  1010.7hPa Calm     92% 0.00in /  0mm
06:54 31.7 °F /  -0.2 °C 29.6 °F /  -1.3 °C 29.84in /  1010.4hPa Calm     92% 0.00in /  0mm
06:59 31.7 °F /  -0.2 °C 29.6 °F /  -1.3 °C 29.85in /  1010.7hPa Calm     92% 0.00in /  0mm
07:04 31.8 °F /  -0.1 °C 29.7 °F /  -1.3 °C 29.84in /  1010.4hPa Calm     92% 0.00in /  0mm
07:09 31.8 °F /  -0.1 °C 29.7 °F /  -1.3 °C 29.84in /  1010.4hPa Calm     92% 0.00in /  0mm
07:14 31.9 °F /  -0.1 °C 29.8 °F /  -1.2 °C 29.84in /  1010.4hPa Calm     92% 0.00in /  0mm
07:19 31.9 °F /  -0.1 °C 29.8 °F /  -1.2 °C 29.83in /  1010hPa Calm     92% 0.00in /  0mm
07:24 32.0 °F /  0 °C 29.9 °F /  -1.2 °C 29.83in /  1010hPa Calm     92% 0.00in /  0mm
07:29 32.0 °F /  0 °C 30.2 °F /  -1 °C 29.83in /  1010hPa Calm     93% 0.00in /  0mm
07:34 32.0 °F /  0 °C 30.2 °F /  -1 °C 29.83in /  1010hPa Calm     93% 0.00in /  0mm
07:39 32.0 °F /  0 °C 30.2 °F /  -1 °C 29.82in /  1009.7hPa Calm     93% 0.00in /  0mm
07:44 32.0 °F /  0 °C 30.2 °F /  -1 °C 29.83in /  1010hPa Calm     93% 0.00in /  0mm
07:49 32.0 °F /  0 °C 30.2 °F /  -1 °C 29.83in /  1010hPa Calm     93% 0.00in /  0mm
07:54 32.1 °F /  0.1 °C 30.3 °F /  -0.9 °C 29.83in /  1010hPa Calm     93% 0.00in /  0mm
07:59 32.1 °F /  0.1 °C 30.3 °F /  -0.9 °C 29.83in /  1010hPa Calm     93% 0.00in /  0mm
08:04 32.1 °F /  0.1 °C 30.3 °F /  -0.9 °C 29.82in /  1009.7hPa Calm     93% 0.00in /  0mm
08:09 32.1 °F /  0.1 °C 30.3 °F /  -0.9 °C 29.82in /  1009.7hPa Calm     93% 0.00in /  0mm
08:14 32.2 °F /  0.1 °C 30.4 °F /  -0.9 °C 29.82in /  1009.7hPa Calm     93% 0.00in /  0mm
08:19 32.2 °F /  0.1 °C 30.4 °F /  -0.9 °C 29.82in /  1009.7hPa Calm     93% 0.00in /  0mm
08:24 32.3 °F /  0.2 °C 30.5 °F /  -0.8 °C 29.82in /  1009.7hPa Calm     93% 0.00in /  0mm
08:29 32.3 °F /  0.2 °C 30.5 °F /  -0.8 °C 29.82in /  1009.7hPa Calm     93% 0.00in /  0mm
08:34 32.3 °F /  0.2 °C 30.5 °F /  -0.8 °C 29.82in /  1009.7hPa Calm     93% 0.00in /  0mm
08:39 32.3 °F /  0.2 °C 30.5 °F /  -0.8 °C 29.82in /  1009.7hPa Calm     93% 0.00in /  0mm
08:44 32.3 °F /  0.2 °C 30.5 °F /  -0.8 °C 29.82in /  1009.7hPa Calm     93% 0.00in /  0mm
08:49 32.3 °F /  0.2 °C 30.5 °F /  -0.8 °C 29.82in /  1009.7hPa Calm     93% 0.00in /  0mm
08:54 32.4 °F /  0.2 °C 30.6 °F /  -0.8 °C 29.82in /  1009.7hPa Calm     93% 0.00in /  0mm
08:59 32.4 °F /  0.2 °C 30.6 °F /  -0.8 °C 29.82in /  1009.7hPa Calm     93% 0.00in /  0mm
09:04 32.3 °F /  0.2 °C 30.5 °F /  -0.8 °C 29.82in /  1009.7hPa Calm     93% 0.00in /  0mm
09:09 32.4 °F /  0.2 °C 30.6 °F /  -0.8 °C 29.82in /  1009.7hPa Calm     93% 0.00in /  0mm
09:14 32.4 °F /  0.2 °C 30.6 °F /  -0.8 °C 29.82in /  1009.7hPa Calm     93% 0.00in /  0mm
09:19 32.4 °F /  0.2 °C 30.6 °F /  -0.8 °C 29.83in /  1010hPa Calm     93% 0.00in /  0mm
09:24 32.4 °F /  0.2 °C 30.6 °F /  -0.8 °C 29.82in /  1009.7hPa Calm     93% 0.00in /  0mm
09:29 32.4 °F /  0.2 °C 30.6 °F /  -0.8 °C 29.82in /  1009.7hPa Calm     93% 0.00in /  0mm
09:34 32.5 °F /  0.3 °C 30.7 °F /  -0.7 °C 29.82in /  1009.7hPa Calm     93% 0.00in /  0mm
09:39 32.5 °F /  0.3 °C 30.7 °F /  -0.7 °C 29.83in /  1010hPa Calm     93% 0.00in /  0mm
09:44 32.5 °F /  0.3 °C 30.7 °F /  -0.7 °C 29.82in /  1009.7hPa Calm     93% 0.00in /  0mm
09:49 32.5 °F /  0.3 °C 30.7 °F /  -0.7 °C 29.82in /  1009.7hPa Calm     93% 0.00in /  0mm
09:54 32.5 °F /  0.3 °C 30.7 °F /  -0.7 °C 29.82in /  1009.7hPa Calm     93% 0.00in /  0mm
09:59 32.6 °F /  0.3 °C 30.8 °F /  -0.7 °C 29.82in /  1009.7hPa Calm     93% 0.00in /  0mm
10:04 32.6 °F /  0.3 °C 30.8 °F /  -0.7 °C 29.81in /  1009.4hPa Calm     93% 0.00in /  0mm
10:09 32.6 °F /  0.3 °C 30.8 °F /  -0.7 °C 29.82in /  1009.7hPa Calm     93% 0.00in /  0mm
10:14 32.6 °F /  0.3 °C 30.8 °F /  -0.7 °C 29.81in /  1009.4hPa Calm     93% 0.00in /  0mm
10:19 32.6 °F /  0.3 °C 30.8 °F /  -0.7 °C 29.81in /  1009.4hPa Calm     93% 0.00in /  0mm
10:24 32.6 °F /  0.3 °C 30.8 °F /  -0.7 °C 29.81in /  1009.4hPa Calm     93% 0.00in /  0mm
10:29 32.7 °F /  0.4 °C 30.9 °F /  -0.6 °C 29.81in /  1009.4hPa Calm     93% 0.00in /  0mm
10:34 32.6 °F /  0.3 °C 30.8 °F /  -0.7 °C 29.81in /  1009.4hPa Calm     93% 0.00in /  0mm
10:39 32.7 °F /  0.4 °C 30.9 °F /  -0.6 °C 29.81in /  1009.4hPa Calm     93% 0.00in /  0mm
10:44 32.7 °F /  0.4 °C 30.9 °F /  -0.6 °C 29.80in /  1009hPa Calm     93% 0.00in /  0mm
10:49 32.9 °F /  0.5 °C 31.1 °F /  -0.5 °C 29.80in /  1009hPa Calm     93% 0.00in /  0mm
10:54 33.1 °F /  0.6 °C 31.3 °F /  -0.4 °C 29.81in /  1009.4hPa Calm     93% 0.00in /  0mm
10:59 33.2 °F /  0.7 °C 31.4 °F /  -0.3 °C 29.81in /  1009.4hPa Calm     93% 0.00in /  0mm
11:04 33.4 °F /  0.8 °C 31.6 °F /  -0.2 °C 29.80in /  1009hPa Calm     93% 0.00in /  0mm
11:09 33.5 °F /  0.8 °C 31.7 °F /  -0.2 °C 29.80in /  1009hPa Calm     93% 0.00in /  0mm
11:14 33.6 °F /  0.9 °C 31.8 °F /  -0.1 °C 29.80in /  1009hPa NE 1.0mph /  1.6km/h 2.0mph /  3.2km/h 93% 0.00in /  0mm
11:19 33.5 °F /  0.8 °C 31.7 °F /  -0.2 °C 29.80in /  1009hPa Calm   2.0mph /  3.2km/h 93% 0.00in /  0mm
11:24 33.5 °F /  0.8 °C 31.7 °F /  -0.2 °C 29.80in /  1009hPa Calm   2.0mph /  3.2km/h 93% 0.00in /  0mm
11:34 33.7 °F /  0.9 °C 31.9 °F /  -0.1 °C 29.80in /  1009hPa Calm   2.0mph /  3.2km/h 93% 0.00in /  0mm
11:39 33.6 °F /  0.9 °C 31.8 °F /  -0.1 °C 29.80in /  1009hPa Calm   2.0mph /  3.2km/h 93% 0.00in /  0mm
11:44 33.6 °F /  0.9 °C 31.8 °F /  -0.1 °C 29.80in /  1009hPa Calm   2.0mph /  3.2km/h 93% 0.00in /  0mm
11:49 33.7 °F /  0.9 °C 31.9 °F /  -0.1 °C 29.80in /  1009hPa Calm   3.0mph /  4.8km/h 93% 0.00in /  0mm
11:54 33.8 °F /  1 °C 32.0 °F /  0 °C 29.80in /  1009hPa Calm   3.0mph /  4.8km/h 93% 0.00in /  0mm
11:59 33.8 °F /  1 °C 32.0 °F /  0 °C 29.81in /  1009.4hPa Calm   1.0mph /  1.6km/h 93% 0.00in /  0mm
12:04 33.7 °F /  0.9 °C 31.9 °F /  -0.1 °C 29.81in /  1009.4hPa Calm   3.0mph /  4.8km/h 93% 0.00in /  0mm
12:09 33.6 °F /  0.9 °C 31.8 °F /  -0.1 °C 29.80in /  1009hPa NE 1.0mph /  1.6km/h 4.0mph /  6.4km/h 93% 0.00in /  0mm
12:14 33.5 °F /  0.8 °C 31.4 °F /  -0.3 °C 29.81in /  1009.4hPa Calm   4.0mph /  6.4km/h 92% 0.00in /  0mm
12:19 33.5 °F /  0.8 °C 31.4 °F /  -0.3 °C 29.80in /  1009hPa Calm   3.0mph /  4.8km/h 92% 0.00in /  0mm
12:24 33.4 °F /  0.8 °C 31.3 °F /  -0.4 °C 29.80in /  1009hPa North 1.0mph /  1.6km/h 5.0mph /  8km/h 92% 0.00in /  0mm
12:29 33.3 °F /  0.7 °C 31.2 °F /  -0.4 °C 29.80in /  1009hPa Calm   5.0mph /  8km/h 92% 0.00in /  0mm
12:39 33.1 °F /  0.6 °C 31.0 °F /  -0.6 °C 29.79in /  1008.7hPa NE 1.0mph /  1.6km/h 5.0mph /  8km/h 92% 0.00in /  0mm
12:44 33.0 °F /  0.6 °C 30.9 °F /  -0.6 °C 29.79in /  1008.7hPa NNE 2.0mph /  3.2km/h 7.0mph /  11.3km/h 92% 0.00in /  0mm
12:49 32.8 °F /  0.4 °C 30.7 °F /  -0.7 °C 29.79in /  1008.7hPa NNE 1.0mph /  1.6km/h 7.0mph /  11.3km/h 92% 0.00in /  0mm
12:54 32.7 °F /  0.4 °C 30.6 °F /  -0.8 °C 29.79in /  1008.7hPa NE 2.0mph /  3.2km/h 8.0mph /  12.9km/h 92% 0.00in /  0mm
12:59 32.6 °F /  0.3 °C 30.5 °F /  -0.8 °C 29.80in /  1009hPa NNE 2.0mph /  3.2km/h 11.0mph /  17.7km/h 92% 0.00in /  0mm
13:04 32.5 °F /  0.3 °C 30.4 °F /  -0.9 °C 29.80in /  1009hPa NNE 2.0mph /  3.2km/h 11.0mph /  17.7km/h 92% 0.00in /  0mm
13:09 32.5 °F /  0.3 °C 30.4 °F /  -0.9 °C 29.80in /  1009hPa ENE 1.0mph /  1.6km/h 8.0mph /  12.9km/h 92% 0.00in /  0mm
13:14 32.5 °F /  0.3 °C 30.4 °F /  -0.9 °C 29.80in /  1009hPa NE 1.0mph /  1.6km/h 8.0mph /  12.9km/h 92% 0.00in /  0mm
13:19 32.5 °F /  0.3 °C 30.4 °F /  -0.9 °C 29.80in /  1009hPa NNE 1.0mph /  1.6km/h 5.0mph /  8km/h 92% 0.00in /  0mm
13:24 32.6 °F /  0.3 °C 30.8 °F /  -0.7 °C 29.80in /  1009hPa NNE 1.0mph /  1.6km/h 5.0mph /  8km/h 93% 0.00in /  0mm
13:29 32.6 °F /  0.3 °C 30.5 °F /  -0.8 °C 29.80in /  1009hPa Calm   4.0mph /  6.4km/h 92% 0.00in /  0mm
13:34 32.6 °F /  0.3 °C 30.5 °F /  -0.8 °C 29.80in /  1009hPa Calm   4.0mph /  6.4km/h 92% 0.00in /  0mm
13:39 32.6 °F /  0.3 °C 30.5 °F /  -0.8 °C 29.81in /  1009.4hPa Calm   4.0mph /  6.4km/h 92% 0.00in /  0mm
13:44 32.6 °F /  0.3 °C 30.5 °F /  -0.8 °C 29.81in /  1009.4hPa Calm   4.0mph /  6.4km/h 92% 0.00in /  0mm
13:49 32.6 °F /  0.3 °C 30.5 °F /  -0.8 °C 29.81in /  1009.4hPa Calm   4.0mph /  6.4km/h 92% 0.00in /  0mm
13:54 32.6 °F /  0.3 °C 30.5 °F /  -0.8 °C 29.81in /  1009.4hPa Calm   4.0mph /  6.4km/h 92% 0.00in /  0mm
13:59 32.6 °F /  0.3 °C 30.5 °F /  -0.8 °C 29.81in /  1009.4hPa NNE 1.0mph /  1.6km/h 4.0mph /  6.4km/h 92% 0.00in /  0mm
14:04 32.5 °F /  0.3 °C 30.4 °F /  -0.9 °C 29.81in /  1009.4hPa Calm   3.0mph /  4.8km/h 92% 0.00in /  0mm
14:09 32.6 °F /  0.3 °C 30.5 °F /  -0.8 °C 29.81in /  1009.4hPa Calm   3.0mph /  4.8km/h 92% 0.00in /  0mm
14:14 32.6 °F /  0.3 °C 30.5 °F /  -0.8 °C 29.82in /  1009.7hPa Calm   4.0mph /  6.4km/h 92% 0.00in /  0mm
14:19 32.6 °F /  0.3 °C 30.5 °F /  -0.8 °C 29.82in /  1009.7hPa Calm   6.0mph /  9.7km/h 92% 0.00in /  0mm
14:24 32.5 °F /  0.3 °C 30.4 °F /  -0.9 °C 29.82in /  1009.7hPa Calm   6.0mph /  9.7km/h 92% 0.00in /  0mm
14:29 32.4 °F /  0.2 °C 30.3 °F /  -0.9 °C 29.82in /  1009.7hPa North 1.0mph /  1.6km/h 5.0mph /  8km/h 92% 0.00in /  0mm
14:34 32.4 °F /  0.2 °C 30.3 °F /  -0.9 °C 29.83in /  1010hPa North 1.0mph /  1.6km/h 5.0mph /  8km/h 92% 0.00in /  0mm
14:39 32.4 °F /  0.2 °C 30.3 °F /  -0.9 °C 29.83in /  1010hPa Calm   5.0mph /  8km/h 92% 0.00in /  0mm
14:44 32.4 °F /  0.2 °C 30.3 °F /  -0.9 °C 29.83in /  1010hPa North 2.0mph /  3.2km/h 5.0mph /  8km/h 92% 0.00in /  0mm
14:49 32.4 °F /  0.2 °C 30.3 °F /  -0.9 °C 29.84in /  1010.4hPa Calm   5.0mph /  8km/h 92% 0.00in /  0mm
14:54 32.4 °F /  0.2 °C 30.3 °F /  -0.9 °C 29.85in /  1010.7hPa Calm   4.0mph /  6.4km/h 92% 0.00in /  0mm
14:59 32.5 °F /  0.3 °C 30.7 °F /  -0.7 °C 29.85in /  1010.7hPa Calm   3.0mph /  4.8km/h 93% 0.00in /  0mm
15:04 32.5 °F /  0.3 °C 30.7 °F /  -0.7 °C 29.85in /  1010.7hPa Calm   2.0mph /  3.2km/h 93% 0.00in /  0mm
15:09 32.5 °F /  0.3 °C 30.7 °F /  -0.7 °C 29.85in /  1010.7hPa Calm   3.0mph /  4.8km/h 93% 0.00in /  0mm
15:14 32.3 °F /  0.2 °C 30.2 °F /  -1 °C 29.86in /  1011.1hPa NW 2.0mph /  3.2km/h 5.0mph /  8km/h 92% 0.00in /  0mm
15:19 32.1 °F /  0.1 °C 30.0 °F /  -1.1 °C 29.86in /  1011.1hPa NW 1.0mph /  1.6km/h 5.0mph /  8km/h 92% 0.00in /  0mm
15:24 32.0 °F /  0 °C 29.9 °F /  -1.2 °C 29.86in /  1011.1hPa NW 2.0mph /  3.2km/h 6.0mph /  9.7km/h 92% 0.00in /  0mm
15:29 31.9 °F /  -0.1 °C 29.8 °F /  -1.2 °C 29.86in /  1011.1hPa NW 1.0mph /  1.6km/h 6.0mph /  9.7km/h 92% 0.00in /  0mm
15:34 31.7 °F /  -0.2 °C 29.6 °F /  -1.3 °C 29.87in /  1011.4hPa Calm   7.0mph /  11.3km/h 92% 0.00in /  0mm
15:39 31.7 °F /  -0.2 °C 29.6 °F /  -1.3 °C 29.87in /  1011.4hPa Calm   7.0mph /  11.3km/h 92% 0.00in /  0mm
15:44 31.6 °F /  -0.2 °C 29.5 °F /  -1.4 °C 29.87in /  1011.4hPa NNW 1.0mph /  1.6km/h 6.0mph /  9.7km/h 92% 0.00in /  0mm
15:49 31.4 °F /  -0.3 °C 29.3 °F /  -1.5 °C 29.87in /  1011.4hPa Calm   6.0mph /  9.7km/h 92% 0.00in /  0mm
15:54 31.3 °F /  -0.4 °C 29.2 °F /  -1.6 °C 29.88in /  1011.7hPa NNW 1.0mph /  1.6km/h 5.0mph /  8km/h 92% 0.00in /  0mm
15:59 31.2 °F /  -0.4 °C 29.1 °F /  -1.6 °C 29.88in /  1011.7hPa NNW 1.0mph /  1.6km/h 5.0mph /  8km/h 92% 0.00in /  0mm
16:04 31.1 °F /  -0.5 °C 29.0 °F /  -1.7 °C 29.88in /  1011.7hPa Calm   5.0mph /  8km/h 92% 0.00in /  0mm
16:09 31.0 °F /  -0.6 °C 29.0 °F /  -1.7 °C 29.88in /  1011.7hPa NNW 1.0mph /  1.6km/h 7.0mph /  11.3km/h 92% 0.00in /  0mm
16:14 30.8 °F /  -0.7 °C 29.0 °F /  -1.7 °C 29.89in /  1012.1hPa NNW 1.0mph /  1.6km/h 7.0mph /  11.3km/h 93% 0.00in /  0mm
16:19 30.7 °F /  -0.7 °C 28.9 °F /  -1.7 °C 29.89in /  1012.1hPa Calm   4.0mph /  6.4km/h 93% 0.00in /  0mm
16:24 30.6 °F /  -0.8 °C 28.8 °F /  -1.8 °C 29.89in /  1012.1hPa Calm   4.0mph /  6.4km/h 93% 0.00in /  0mm
16:29 30.5 °F /  -0.8 °C 28.5 °F /  -1.9 °C 29.89in /  1012.1hPa NNW 1.0mph /  1.6km/h 5.0mph /  8km/h 92% 0.00in /  0mm
16:34 30.5 °F /  -0.8 °C 28.5 °F /  -1.9 °C 29.89in /  1012.1hPa Calm   5.0mph /  8km/h 92% 0.00in /  0mm
16:39 30.4 °F /  -0.9 °C 28.6 °F /  -1.9 °C 29.90in /  1012.4hPa NNW 1.0mph /  1.6km/h 3.0mph /  4.8km/h 93% 0.00in /  0mm
16:44 30.4 °F /  -0.9 °C 28.6 °F /  -1.9 °C 29.90in /  1012.4hPa Calm   5.0mph /  8km/h 93% 0.00in /  0mm
16:49 30.3 °F /  -0.9 °C 28.5 °F /  -1.9 °C 29.90in /  1012.4hPa Calm   5.0mph /  8km/h 93% 0.00in /  0mm
16:54 30.3 °F /  -0.9 °C 28.5 °F /  -1.9 °C 29.91in /  1012.8hPa NNW 1.0mph /  1.6km/h 5.0mph /  8km/h 93% 0.00in /  0mm
16:59 30.2 °F /  -1 °C 28.4 °F /  -2 °C 29.91in /  1012.8hPa Calm   4.0mph /  6.4km/h 93% 0.00in /  0mm
17:04 30.0 °F /  -1.1 °C 28.0 °F /  -2.2 °C 29.91in /  1012.8hPa Calm   6.0mph /  9.7km/h 92% 0.00in /  0mm
17:09 29.9 °F /  -1.2 °C 27.9 °F /  -2.3 °C 29.91in /  1012.8hPa Calm   6.0mph /  9.7km/h 92% 0.00in /  0mm
17:14 29.8 °F /  -1.2 °C 27.8 °F /  -2.3 °C 29.91in /  1012.8hPa Calm   6.0mph /  9.7km/h 92% 0.00in /  0mm
17:19 29.8 °F /  -1.2 °C 28.0 °F /  -2.2 °C 29.92in /  1013.1hPa Calm   3.0mph /  4.8km/h 93% 0.00in /  0mm
17:24 29.8 °F /  -1.2 °C 28.0 °F /  -2.2 °C 29.92in /  1013.1hPa North 1.0mph /  1.6km/h 3.0mph /  4.8km/h 93% 0.00in /  0mm
17:29 29.7 °F /  -1.3 °C 27.9 °F /  -2.3 °C 29.92in /  1013.1hPa North 1.0mph /  1.6km/h 7.0mph /  11.3km/h 93% 0.00in /  0mm
17:34 29.6 °F /  -1.3 °C 27.8 °F /  -2.3 °C 29.92in /  1013.1hPa Calm   7.0mph /  11.3km/h 93% 0.00in /  0mm
17:39 29.5 °F /  -1.4 °C 27.7 °F /  -2.4 °C 29.93in /  1013.4hPa Calm   5.0mph /  8km/h 93% 0.00in /  0mm
17:44 29.5 °F /  -1.4 °C 27.7 °F /  -2.4 °C 29.93in /  1013.4hPa North 1.0mph /  1.6km/h 7.0mph /  11.3km/h 93% 0.00in /  0mm
17:49 29.4 °F /  -1.4 °C 27.4 °F /  -2.6 °C 29.93in /  1013.4hPa Calm   7.0mph /  11.3km/h 92% 0.00in /  0mm
17:54 29.3 °F /  -1.5 °C 27.3 °F /  -2.6 °C 29.93in /  1013.4hPa North 1.0mph /  1.6km/h 4.0mph /  6.4km/h 92% 0.00in /  0mm
17:59 29.2 °F /  -1.6 °C 27.2 °F /  -2.7 °C 29.93in /  1013.4hPa North 1.0mph /  1.6km/h 5.0mph /  8km/h 92% 0.00in /  0mm
18:04 29.1 °F /  -1.6 °C 27.1 °F /  -2.7 °C 29.93in /  1013.4hPa North 1.0mph /  1.6km/h 5.0mph /  8km/h 92% 0.00in /  0mm
18:09 29.0 °F /  -1.7 °C 27.2 °F /  -2.7 °C 29.94in /  1013.8hPa North 1.0mph /  1.6km/h 5.0mph /  8km/h 93% 0.00in /  0mm
18:14 28.8 °F /  -1.8 °C 27.0 °F /  -2.8 °C 29.94in /  1013.8hPa North 1.0mph /  1.6km/h 6.0mph /  9.7km/h 93% 0.00in /  0mm
18:19 28.8 °F /  -1.8 °C 27.0 °F /  -2.8 °C 29.94in /  1013.8hPa Calm   7.0mph /  11.3km/h 93% 0.00in /  0mm
18:24 28.8 °F /  -1.8 °C 26.8 °F /  -2.9 °C 29.94in /  1013.8hPa Calm   7.0mph /  11.3km/h 92% 0.00in /  0mm
18:29 28.7 °F /  -1.8 °C 26.7 °F /  -2.9 °C 29.94in /  1013.8hPa Calm   5.0mph /  8km/h 92% 0.00in /  0mm
18:34 28.8 °F /  -1.8 °C 26.8 °F /  -2.9 °C 29.95in /  1014.1hPa Calm   5.0mph /  8km/h 92% 0.00in /  0mm
18:39 28.7 °F /  -1.8 °C 26.7 °F /  -2.9 °C 29.95in /  1014.1hPa Calm   3.0mph /  4.8km/h 92% 0.00in /  0mm
18:44 28.7 °F /  -1.8 °C 26.7 °F /  -2.9 °C 29.95in /  1014.1hPa Calm   4.0mph /  6.4km/h 92% 0.00in /  0mm
18:49 28.6 °F /  -1.9 °C 26.6 °F /  -3 °C 29.96in /  1014.4hPa North 2.0mph /  3.2km/h 7.0mph /  11.3km/h 92% 0.00in /  0mm
18:54 28.5 °F /  -1.9 °C 26.5 °F /  -3.1 °C 29.96in /  1014.4hPa North 1.0mph /  1.6km/h 7.0mph /  11.3km/h 92% 0.00in /  0mm
18:59 28.3 °F /  -2.1 °C 26.5 °F /  -3.1 °C 29.97in /  1014.8hPa Calm   8.0mph /  12.9km/h 93% 0.00in /  0mm
19:04 28.2 °F /  -2.1 °C 26.4 °F /  -3.1 °C 29.97in /  1014.8hPa NNW 2.0mph /  3.2km/h 8.0mph /  12.9km/h 93% 0.00in /  0mm
19:09 28.1 °F /  -2.2 °C 26.1 °F /  -3.3 °C 29.97in /  1014.8hPa North 1.0mph /  1.6km/h 8.0mph /  12.9km/h 92% 0.00in /  0mm
19:14 28.1 °F /  -2.2 °C 26.1 °F /  -3.3 °C 29.98in /  1015.1hPa Calm   5.0mph /  8km/h 92% 0.00in /  0mm
19:19 28.0 °F /  -2.2 °C 26.0 °F /  -3.3 °C 29.98in /  1015.1hPa NNW 2.0mph /  3.2km/h 8.0mph /  12.9km/h 92% 0.00in /  0mm
19:24 27.9 °F /  -2.3 °C 26.1 °F /  -3.3 °C 29.98in /  1015.1hPa NNW 1.0mph /  1.6km/h 8.0mph /  12.9km/h 93% 0.00in /  0mm
19:29 27.8 °F /  -2.3 °C 26.0 °F /  -3.3 °C 29.98in /  1015.1hPa Calm   4.0mph /  6.4km/h 93% 0.00in /  0mm
19:34 27.7 °F /  -2.4 °C 25.7 °F /  -3.5 °C 29.99in /  1015.5hPa NW 1.0mph /  1.6km/h 5.0mph /  8km/h 92% 0.00in /  0mm
19:39 27.6 °F /  -2.4 °C 25.6 °F /  -3.6 °C 29.99in /  1015.5hPa Calm   5.0mph /  8km/h 92% 0.00in /  0mm
19:49 27.4 °F /  -2.6 °C 25.4 °F /  -3.7 °C 30.00in /  1015.8hPa NNW 1.0mph /  1.6km/h 6.0mph /  9.7km/h 92% 0.00in /  0mm
19:54 27.4 °F /  -2.6 °C 25.6 °F /  -3.6 °C 30.00in /  1015.8hPa Calm   5.0mph /  8km/h 93% 0.00in /  0mm
19:59 27.3 °F /  -2.6 °C 25.5 °F /  -3.6 °C 30.00in /  1015.8hPa NW 1.0mph /  1.6km/h 5.0mph /  8km/h 93% 0.00in /  0mm
20:04 27.3 °F /  -2.6 °C 25.5 °F /  -3.6 °C 30.00in /  1015.8hPa Calm   3.0mph /  4.8km/h 93% 0.00in /  0mm
20:09 27.2 °F /  -2.7 °C 25.4 °F /  -3.7 °C 30.00in /  1015.8hPa Calm   5.0mph /  8km/h 93% 0.00in /  0mm
20:14 27.2 °F /  -2.7 °C 25.4 °F /  -3.7 °C 30.00in /  1015.8hPa Calm   6.0mph /  9.7km/h 93% 0.00in /  0mm
20:19 27.0 °F /  -2.8 °C 25.0 °F /  -3.9 °C 30.01in /  1016.1hPa Calm   7.0mph /  11.3km/h 92% 0.00in /  0mm
20:24 27.0 °F /  -2.8 °C 25.0 °F /  -3.9 °C 30.00in /  1015.8hPa NW 1.0mph /  1.6km/h 7.0mph /  11.3km/h 92% 0.00in /  0mm
20:29 26.8 °F /  -2.9 °C 24.8 °F /  -4 °C 30.00in /  1015.8hPa NW 1.0mph /  1.6km/h 5.0mph /  8km/h 92% 0.00in /  0mm
20:34 26.8 °F /  -2.9 °C 24.8 °F /  -4 °C 30.00in /  1015.8hPa Calm   5.0mph /  8km/h 92% 0.00in /  0mm
20:39 26.7 °F /  -2.9 °C 25.0 °F /  -3.9 °C 30.01in /  1016.1hPa NW 2.0mph /  3.2km/h 4.0mph /  6.4km/h 93% 0.00in /  0mm
20:44 26.6 °F /  -3 °C 24.9 °F /  -3.9 °C 30.01in /  1016.1hPa NW 3.0mph /  4.8km/h 6.0mph /  9.7km/h 93% 0.00in /  0mm
20:49 26.5 °F /  -3.1 °C 24.8 °F /  -4 °C 30.01in /  1016.1hPa Calm   6.0mph /  9.7km/h 93% 0.00in /  0mm
20:54 26.5 °F /  -3.1 °C 24.8 °F /  -4 °C 30.01in /  1016.1hPa NW 1.0mph /  1.6km/h 5.0mph /  8km/h 93% 0.00in /  0mm
20:59 26.4 °F /  -3.1 °C 24.7 °F /  -4.1 °C 30.01in /  1016.1hPa Calm   6.0mph /  9.7km/h 93% 0.00in /  0mm
21:04 26.4 °F /  -3.1 °C 24.4 °F /  -4.2 °C 30.01in /  1016.1hPa NW 1.0mph /  1.6km/h 6.0mph /  9.7km/h 92% 0.00in /  0mm
21:09 26.4 °F /  -3.1 °C 24.4 °F /  -4.2 °C 30.01in /  1016.1hPa NW 1.0mph /  1.6km/h 6.0mph /  9.7km/h 92% 0.00in /  0mm
21:14 26.3 °F /  -3.2 °C 24.3 °F /  -4.3 °C 30.01in /  1016.1hPa NW 1.0mph /  1.6km/h 5.0mph /  8km/h 92% 0.00in /  0mm
21:19 26.3 °F /  -3.2 °C 24.3 °F /  -4.3 °C 30.01in /  1016.1hPa Calm   4.0mph /  6.4km/h 92% 0.00in /  0mm
21:24 26.3 °F /  -3.2 °C 24.3 °F /  -4.3 °C 30.01in /  1016.1hPa Calm   4.0mph /  6.4km/h 92% 0.00in /  0mm
21:29 26.2 °F /  -3.2 °C 24.2 °F /  -4.3 °C 30.02in /  1016.5hPa Calm   4.0mph /  6.4km/h 92% 0.00in /  0mm
21:34 26.2 °F /  -3.2 °C 24.2 °F /  -4.3 °C 30.02in /  1016.5hPa Calm   3.0mph /  4.8km/h 92% 0.00in /  0mm
21:39 26.2 °F /  -3.2 °C 24.2 °F /  -4.3 °C 30.02in /  1016.5hPa Calm   3.0mph /  4.8km/h 92% 0.00in /  0mm
21:44 26.2 °F /  -3.2 °C 24.2 °F /  -4.3 °C 30.02in /  1016.5hPa Calm     92% 0.00in /  0mm
21:49 26.2 °F /  -3.2 °C 24.2 °F /  -4.3 °C 30.02in /  1016.5hPa Calm     92% 0.00in /  0mm
21:54 26.2 °F /  -3.2 °C 24.2 °F /  -4.3 °C 30.02in /  1016.5hPa Calm     92% 0.00in /  0mm
21:59 26.3 °F /  -3.2 °C 24.3 °F /  -4.3 °C 30.02in /  1016.5hPa Calm     92% 0.00in /  0mm
22:04 26.3 °F /  -3.2 °C 24.3 °F /  -4.3 °C 30.03in /  1016.8hPa Calm     92% 0.00in /  0mm
22:09 26.3 °F /  -3.2 °C 24.3 °F /  -4.3 °C 30.03in /  1016.8hPa Calm     92% 0.00in /  0mm
22:14 26.3 °F /  -3.2 °C 24.3 °F /  -4.3 °C 30.04in /  1017.2hPa Calm   6.0mph /  9.7km/h 92% 0.00in /  0mm
22:19 26.3 °F /  -3.2 °C 24.3 °F /  -4.3 °C 30.03in /  1016.8hPa North 1.0mph /  1.6km/h 6.0mph /  9.7km/h 92% 0.00in /  0mm
22:24 26.3 °F /  -3.2 °C 24.3 °F /  -4.3 °C 30.03in /  1016.8hPa Calm   3.0mph /  4.8km/h 92% 0.00in /  0mm
22:29 26.3 °F /  -3.2 °C 24.3 °F /  -4.3 °C 30.03in /  1016.8hPa Calm   3.0mph /  4.8km/h 92% 0.00in /  0mm
22:39 26.3 °F /  -3.2 °C 24.3 °F /  -4.3 °C 30.04in /  1017.2hPa Calm   3.0mph /  4.8km/h 92% 0.00in /  0mm
22:44 26.3 °F /  -3.2 °C 24.3 °F /  -4.3 °C 30.04in /  1017.2hPa Calm   4.0mph /  6.4km/h 92% 0.00in /  0mm
22:49 26.3 °F /  -3.2 °C 24.3 °F /  -4.3 °C 30.04in /  1017.2hPa Calm   4.0mph /  6.4km/h 92% 0.00in /  0mm
22:54 26.3 °F /  -3.2 °C 24.3 °F /  -4.3 °C 30.05in /  1017.5hPa Calm   4.0mph /  6.4km/h 92% 0.00in /  0mm
22:59 26.3 °F /  -3.2 °C 24.3 °F /  -4.3 °C 30.05in /  1017.5hPa Calm   5.0mph /  8km/h 92% 0.00in /  0mm
23:04 26.3 °F /  -3.2 °C 24.3 °F /  -4.3 °C 30.05in /  1017.5hPa Calm   5.0mph /  8km/h 92% 0.00in /  0mm
23:09 26.2 °F /  -3.2 °C 24.2 °F /  -4.3 °C 30.04in /  1017.2hPa Calm   4.0mph /  6.4km/h 92% 0.00in /  0mm
23:14 26.2 °F /  -3.2 °C 24.2 °F /  -4.3 °C 30.05in /  1017.5hPa Calm     92% 0.00in /  0mm
23:19 26.2 °F /  -3.2 °C 24.2 °F /  -4.3 °C 30.05in /  1017.5hPa Calm     92% 0.00in /  0mm
23:24 26.2 °F /  -3.2 °C 24.2 °F /  -4.3 °C 30.05in /  1017.5hPa Calm   2.0mph /  3.2km/h 92% 0.00in /  0mm
23:29 26.2 °F /  -3.2 °C 24.2 °F /  -4.3 °C 30.04in /  1017.2hPa NNE 1.0mph /  1.6km/h 5.0mph /  8km/h 92% 0.00in /  0mm
23:34 26.1 °F /  -3.3 °C 24.1 °F /  -4.4 °C 30.04in /  1017.2hPa NNE 1.0mph /  1.6km/h 6.0mph /  9.7km/h 92% 0.00in /  0mm
23:39 26.1 °F /  -3.3 °C 24.1 °F /  -4.4 °C 30.04in /  1017.2hPa NNE 1.0mph /  1.6km/h 6.0mph /  9.7km/h 92% 0.00in /  0mm
23:44 26.1 °F /  -3.3 °C 24.1 °F /  -4.4 °C 30.04in /  1017.2hPa Calm   3.0mph /  4.8km/h 92% 0.00in /  0mm
23:49 26.0 °F /  -3.3 °C 24.0 °F /  -4.4 °C 30.04in /  1017.2hPa Calm   3.0mph /  4.8km/h 92% 0.00in /  0mm
23:54 26.0 °F /  -3.3 °C 24.0 °F /  -4.4 °C 30.04in /  1017.2hPa Calm   4.0mph /  6.4km/h 92% 0.00in /  0mm
23:59 26.0 °F /  -3.3 °C 24.0 °F /  -4.4 °C 30.04in /  1017.2hPa Calm   4.0mph /  6.4km/h 92% 0.00in /  0mm
Westford Weather
Compliments of Weather Underground

 
 
Current Radar Loop:

Copyright © WestfordWeather.net 2007-2014. All rights reserved.